Beaufort MCAS - Merritt Field
KNBC : now visible

Airfield :











YOU CAN JOIN US ON...

 
LOGIN :

Register | Disclaimer

   EN    FR    IT 

 









Legend :    VFR   Marginal VFR   IFR   Intensive IFR   Very Intensive IFR
Visi :
Ceiling :
>= 8 km
>= 3000ft
5 to 8 km
1000 to 3000 ft
1500m to 5 km
500 to 1000 ft
800 to 1500m
200 to 500 ft
< 800m
< 200 ft
Symbols :   Thunderstorms  Fog  Heavy snow  Heavy precipitations  Wind > 20 kt







- Airport Elevation : 37 ft


KNBC - Beaufort MCAS - Merritt Field

CURRENT METAR :
  • 181756Z 14012KT 10SM SCT037 BKN046 BKN060 27/19 A3003 RMK AO2 SLP169 T02670189 10267 20211 58015

EXPIRED METARs :
  • 181656Z 16009G19KT 10SM SCT036 BKN047 BKN060 25/18 A3005 RMK AO2 SLP177 T02500183
  • 181556Z 15008KT 10SM FEW030 SCT040 BKN050 26/19 A3007 RMK AO2 SLP183 T02610189

TAF AMD TAF KNBC
Valid from the 18 at 18:00 until the 19 at 15:00 UTC


1818/1915 15012G18KT 9999 SCT040 BKN045 BKN060 QNH2990INS
TEMPO 1901/1904 17010KT BKN025
BECMG 1907/1909 18012G20KT 9999 VCTS BKN015CB OVC030 540009 540909 541809 542709 543604 QNH2982INS
FM191400 18020G35KT 0800 +TSRA BR BKN008CB OVC015 540009 540909 541809 542709 543604 QNH2976INS T27/1818Z T21/1910Z AMD 1756
KZJX FIR / North America



MET'MAP, your aeronautical weather chart ! - Copyright ORBIFLY December 2007 - Disclaimer

ORBIFLY MET'MAP TEAM :

Programming & Development : Alexandra Zaïnal
Concept & Development : Baudouin d'Aumeries
Co-Development & Prog : Marc-Olivier Méhu
Technical & hardware support : Manuel Goepfert

Contact : metmap@orbifly.com




SOURCES & CREDITS :

   NOAA       Earth
Advisory